createdAt,value
2024-01-05T00:00:15.513Z,3.03
2024-01-05T00:02:42.603Z,3.20
2024-01-05T00:05:10.149Z,3.13
2024-01-05T00:07:37.313Z,2.50
2024-01-05T00:10:04.944Z,2.40
2024-01-05T00:12:32.287Z,2.47
2024-01-05T00:14:59.569Z,2.23
2024-01-05T00:17:26.646Z,2.03
2024-01-05T00:19:54.401Z,2.77
2024-01-05T00:22:24.682Z,3.63
2024-01-05T00:24:53.358Z,3.00
2024-01-05T00:27:20.559Z,3.70
2024-01-05T00:29:49.249Z,3.10
2024-01-05T00:32:18.675Z,2.57
2024-01-05T00:34:46.533Z,2.50
2024-01-05T00:37:13.743Z,3.30
2024-01-05T00:39:41.411Z,2.40
2024-01-05T00:42:08.690Z,2.83
2024-01-05T00:44:35.848Z,3.10
2024-01-05T00:47:03.013Z,3.90
2024-01-05T00:49:29.930Z,3.80
2024-01-05T00:51:56.981Z,3.00
2024-01-05T00:54:23.915Z,3.63
2024-01-05T00:56:52.681Z,3.40
2024-01-05T00:59:21.536Z,2.80
2024-01-05T01:01:48.610Z,2.70
2024-01-05T01:04:16.110Z,2.93
2024-01-05T01:06:43.296Z,4.83
2024-01-05T01:09:10.524Z,3.33
2024-01-05T01:11:37.423Z,3.73
2024-01-05T01:14:04.281Z,3.60
2024-01-05T01:16:32.563Z,3.43
2024-01-05T01:19:00.784Z,2.90
2024-01-05T01:21:27.981Z,2.93
2024-01-05T01:23:54.925Z,2.40
2024-01-05T01:26:21.887Z,2.30
2024-01-05T01:28:48.780Z,1.80
2024-01-05T01:31:15.898Z,1.97
2024-01-05T01:33:44.091Z,2.00
2024-01-05T01:36:11.237Z,1.83
2024-01-05T01:38:40.807Z,1.67
2024-01-05T01:41:07.752Z,1.53
2024-01-05T01:43:34.690Z,1.53
2024-01-05T01:46:02.273Z,1.70
2024-01-05T01:48:31.193Z,1.77
2024-01-05T01:50:59.691Z,1.60
2024-01-05T01:53:28.408Z,1.80
2024-01-05T01:55:56.194Z,1.80
2024-01-05T01:58:24.101Z,2.20
2024-01-05T02:00:52.059Z,1.90
2024-01-05T02:03:19.347Z,2.20
2024-01-05T02:05:48.987Z,2.00
2024-01-05T02:08:16.658Z,2.60
2024-01-05T02:10:43.818Z,2.50
2024-01-05T02:13:11.197Z,1.83
2024-01-05T02:15:38.157Z,1.70
2024-01-05T02:18:15.958Z,1.43
2024-01-05T02:20:48.249Z,1.80
2024-01-05T02:23:24.067Z,2.07
2024-01-05T02:25:51.300Z,1.90
2024-01-05T02:28:20.041Z,2.00
2024-01-05T02:30:47.477Z,1.97
2024-01-05T02:33:14.667Z,2.27
2024-01-05T02:35:42.181Z,1.70
2024-01-05T02:38:09.081Z,1.83
2024-01-05T02:40:36.063Z,1.80
2024-01-05T02:43:02.996Z,1.80
2024-01-05T02:45:31.198Z,2.13
2024-01-05T02:47:58.231Z,1.70
2024-01-05T02:50:25.306Z,2.00
2024-01-05T02:52:52.182Z,2.47
2024-01-05T02:55:19.053Z,2.20
2024-01-05T02:57:48.870Z,1.87
2024-01-05T03:00:16.235Z,2.00
2024-01-05T03:02:43.130Z,2.17
2024-01-05T03:05:10.197Z,2.00
2024-01-05T03:07:37.097Z,2.30
2024-01-05T03:10:04.270Z,1.83
2024-01-05T03:12:31.270Z,2.03
2024-01-05T03:15:00.655Z,1.63
2024-01-05T03:17:27.670Z,1.60
2024-01-05T03:19:54.681Z,1.40
2024-01-05T03:22:21.723Z,3.37
2024-01-05T03:24:48.657Z,2.30
2024-01-05T03:27:16.281Z,1.90
2024-01-05T03:29:43.423Z,1.77
2024-01-05T03:32:10.479Z,1.70
2024-01-05T03:34:38.939Z,2.07
2024-01-05T03:37:06.057Z,1.90
2024-01-05T03:39:33.219Z,1.90
2024-01-05T03:42:00.336Z,1.70
2024-01-05T03:44:27.590Z,2.90
2024-01-05T03:46:54.658Z,2.90
2024-01-05T03:49:21.800Z,2.60
2024-01-05T03:51:48.926Z,2.50
2024-01-05T03:54:16.083Z,2.60
2024-01-05T03:56:44.361Z,3.00
2024-01-05T03:59:11.613Z,4.33
2024-01-05T04:01:51.171Z,5.13
2024-01-05T04:04:18.836Z,5.73
2024-01-05T04:06:47.094Z,5.77
2024-01-05T04:09:14.739Z,6.77
2024-01-05T04:11:41.829Z,4.17
2024-01-05T04:14:09.758Z,4.67
2024-01-05T04:16:36.967Z,10.33
2024-01-05T04:19:04.228Z,8.10
2024-01-05T04:21:32.259Z,4.37
2024-01-05T04:23:59.882Z,3.67
2024-01-05T04:26:27.576Z,3.60
2024-01-05T04:28:54.989Z,7.50
2024-01-05T04:31:22.435Z,16.17
2024-01-05T04:33:50.166Z,7.07
2024-01-05T04:36:19.152Z,5.97
2024-01-05T04:38:46.330Z,6.03
2024-01-05T04:41:15.046Z,5.40
2024-01-05T04:43:43.348Z,6.47
2024-01-05T04:46:10.855Z,10.60
2024-01-05T04:48:38.047Z,8.70
2024-01-05T04:51:05.302Z,5.87
2024-01-05T04:53:32.311Z,3.70
2024-01-05T04:55:59.185Z,4.30
2024-01-05T04:58:26.374Z,4.90
2024-01-05T05:00:55.210Z,5.97
2024-01-05T05:03:22.566Z,3.60
2024-01-05T05:05:49.724Z,3.60
2024-01-05T05:08:16.732Z,3.30
2024-01-05T05:10:44.088Z,4.20
2024-01-05T05:13:11.210Z,5.77
2024-01-05T05:15:39.639Z,4.83
2024-01-05T05:18:07.824Z,4.43
2024-01-05T05:20:35.143Z,2.80
2024-01-05T05:23:02.097Z,3.47
2024-01-05T05:25:29.037Z,3.97
2024-01-05T05:27:55.949Z,4.73
2024-01-05T05:30:23.294Z,5.87
2024-01-05T05:32:50.611Z,4.80
2024-01-05T05:35:17.523Z,5.10
2024-01-05T05:37:44.422Z,5.43
2024-01-05T05:40:13.539Z,4.50
2024-01-05T05:42:40.860Z,5.53
2024-01-05T05:45:08.454Z,5.10
2024-01-05T05:47:35.711Z,5.97
2024-01-05T05:50:07.244Z,5.67
2024-01-05T05:52:36.304Z,5.00
2024-01-05T05:55:03.460Z,7.13
2024-01-05T05:57:30.875Z,6.90
2024-01-05T05:59:58.006Z,6.30
2024-01-05T06:02:24.968Z,6.07
2024-01-05T06:04:52.156Z,4.00
2024-01-05T06:07:19.075Z,4.60
2024-01-05T06:09:45.966Z,5.77
2024-01-05T06:12:12.951Z,5.80
2024-01-05T06:14:39.844Z,10.27
2024-01-05T06:17:06.772Z,7.53
2024-01-05T06:19:33.927Z,6.77
2024-01-05T06:22:01.516Z,6.57
2024-01-05T06:24:30.329Z,8.17
2024-01-05T06:26:57.899Z,9.67
2024-01-05T06:29:24.998Z,14.60
2024-01-05T06:31:51.997Z,10.30
2024-01-05T06:34:20.071Z,9.40
2024-01-05T06:36:47.301Z,15.70
2024-01-05T06:39:14.176Z,36.30
2024-01-05T06:41:41.642Z,34.17
2024-01-05T06:44:08.926Z,28.13
2024-01-05T06:46:35.812Z,26.73
2024-01-05T06:49:03.144Z,26.27
2024-01-05T06:51:31.788Z,21.40
2024-01-05T06:53:59.357Z,19.80
2024-01-05T06:56:29.413Z,22.67
2024-01-05T06:58:57.066Z,20.80
2024-01-05T07:01:24.540Z,28.53
2024-01-05T07:03:52.064Z,29.03
2024-01-05T07:06:19.218Z,28.43
2024-01-05T07:08:46.161Z,32.47
2024-01-05T07:11:23.151Z,26.80
2024-01-05T07:13:51.202Z,24.33
2024-01-05T07:16:22.649Z,21.30
2024-01-05T07:18:50.502Z,21.83
2024-01-05T07:21:18.536Z,15.77
2024-01-05T07:23:45.655Z,16.77
2024-01-05T07:26:14.131Z,13.87
2024-01-05T07:28:41.526Z,9.93
2024-01-05T07:31:11.282Z,4.00
2024-01-05T07:33:41.205Z,4.80
2024-01-05T07:36:08.692Z,4.97
2024-01-05T07:38:36.505Z,4.93
2024-01-05T07:41:04.565Z,5.77
2024-01-05T07:43:32.077Z,5.33
2024-01-05T07:45:59.334Z,8.50
2024-01-05T07:48:26.605Z,5.87
2024-01-05T07:50:55.464Z,5.97
2024-01-05T07:53:23.098Z,5.50
2024-01-05T07:55:50.002Z,6.30
2024-01-05T07:58:17.447Z,6.60
2024-01-05T08:00:44.519Z,6.77
2024-01-05T08:03:12.650Z,13.40
2024-01-05T08:05:44.995Z,21.87
2024-01-05T08:08:16.647Z,16.33
2024-01-05T08:10:43.580Z,13.70
2024-01-05T08:13:10.849Z,7.67
2024-01-05T08:15:38.270Z,5.73
2024-01-05T08:18:06.174Z,5.70
2024-01-05T08:20:40.665Z,6.03
2024-01-05T08:23:10.546Z,6.60
2024-01-05T08:25:37.600Z,6.50
2024-01-05T08:28:05.196Z,5.80
2024-01-05T08:30:32.872Z,7.50
2024-01-05T08:33:00.484Z,8.23
2024-01-05T08:35:27.942Z,9.67
2024-01-05T08:37:55.509Z,9.47
2024-01-05T08:40:27.842Z,7.77
2024-01-05T08:42:59.197Z,6.60
2024-01-05T08:45:28.793Z,5.47
2024-01-05T08:47:56.278Z,5.63
2024-01-05T08:50:23.796Z,5.40
2024-01-05T08:52:52.207Z,5.40
2024-01-05T08:55:19.682Z,4.80
2024-01-05T08:57:48.980Z,5.27
2024-01-05T09:00:16.693Z,4.17
2024-01-05T09:02:44.424Z,4.70
2024-01-05T09:05:11.962Z,4.70
2024-01-05T09:07:40.583Z,6.13
2024-01-05T09:10:11.312Z,5.57
2024-01-05T09:12:39.768Z,6.13
2024-01-05T09:15:08.839Z,5.60
2024-01-05T09:17:36.354Z,7.47
2024-01-05T09:20:08.204Z,6.63
2024-01-05T09:22:36.128Z,5.67
2024-01-05T09:25:07.452Z,6.87
2024-01-05T09:27:34.829Z,6.23
2024-01-05T09:30:02.340Z,7.63
2024-01-05T09:32:31.969Z,7.63
2024-01-05T09:34:59.491Z,10.23
2024-01-05T09:37:26.899Z,33.83
2024-01-05T09:39:54.283Z,12.90
2024-01-05T09:42:21.772Z,12.97
2024-01-05T09:44:49.684Z,17.00
2024-01-05T09:47:18.867Z,10.33
2024-01-05T09:49:50.509Z,13.53
2024-01-05T09:52:21.486Z,50.33
2024-01-05T09:54:48.916Z,77.90
2024-01-05T09:57:21.545Z,25.13
2024-01-05T09:59:49.295Z,7.43
2024-01-05T10:02:27.701Z,6.10
2024-01-05T10:04:56.198Z,13.53
2024-01-05T10:07:23.198Z,120.60
2024-01-05T10:09:54.894Z,44.07
2024-01-05T10:12:22.298Z,12.00
2024-01-05T10:14:50.718Z,7.47
2024-01-05T10:17:18.531Z,8.10
2024-01-05T10:19:46.088Z,6.07
2024-01-05T10:22:15.780Z,5.40
2024-01-05T10:24:44.056Z,5.47
2024-01-05T10:27:15.288Z,5.77
2024-01-05T10:29:47.717Z,7.07
2024-01-05T10:32:20.181Z,7.00
2024-01-05T10:34:49.110Z,4.30
2024-01-05T10:37:17.828Z,9.57
2024-01-05T10:39:56.539Z,10.87
2024-01-05T10:42:29.211Z,5.23
2024-01-05T10:45:00.372Z,4.50
2024-01-05T10:47:32.431Z,10.70
2024-01-05T10:50:00.070Z,6.03
2024-01-05T10:52:29.863Z,9.33
2024-01-05T10:54:57.494Z,5.63
2024-01-05T10:57:28.053Z,4.00
2024-01-05T10:59:56.003Z,3.10
2024-01-05T11:02:40.713Z,3.47
2024-01-05T11:05:09.592Z,5.03
2024-01-05T11:07:38.680Z,3.70
2024-01-05T11:10:33.414Z,32.63
2024-01-05T11:13:33.965Z,64.60
2024-01-05T11:16:25.540Z,20.47
2024-01-05T11:19:20.746Z,43.67
2024-01-05T11:22:01.274Z,11.87
2024-01-05T11:24:29.315Z,68.37
2024-01-05T11:26:59.117Z,9.67
2024-01-05T11:29:47.634Z,3.80
2024-01-05T11:32:47.734Z,3.83
2024-01-05T11:35:19.042Z,6.43
2024-01-05T11:37:46.992Z,4.67
2024-01-05T11:40:26.485Z,15.20
2024-01-05T11:42:53.956Z,3.43
2024-01-05T11:45:45.608Z,3.23
2024-01-05T11:48:49.064Z,3.27
2024-01-05T11:51:16.881Z,2.63
2024-01-05T11:53:45.943Z,2.07
2024-01-05T11:56:17.409Z,2.90
2024-01-05T11:58:45.542Z,55.20
2024-01-05T12:01:15.061Z,35.47
2024-01-05T12:03:44.911Z,4.10
2024-01-05T12:06:14.416Z,3.23
2024-01-05T12:08:42.477Z,2.20
2024-01-05T12:11:12.248Z,7.63
2024-01-05T12:13:40.260Z,26.60
2024-01-05T12:16:12.063Z,13.70
2024-01-05T12:18:49.883Z,10.13
2024-01-05T12:21:21.066Z,11.00
2024-01-05T12:23:57.492Z,3.23
2024-01-05T12:26:25.246Z,3.87
2024-01-05T12:28:53.110Z,10.63
2024-01-05T12:31:22.016Z,6.53
2024-01-05T12:33:49.596Z,4.43
2024-01-05T12:36:33.176Z,3.33
2024-01-05T12:39:17.319Z,7.87
2024-01-05T12:41:47.532Z,5.47
2024-01-05T12:44:17.615Z,3.97
2024-01-05T12:46:48.178Z,5.90
2024-01-05T12:49:26.419Z,6.20
2024-01-05T12:51:54.459Z,6.80
2024-01-05T12:54:22.749Z,9.87
2024-01-05T12:56:52.477Z,8.50
2024-01-05T12:59:24.166Z,4.00
2024-01-05T13:02:01.808Z,5.30
2024-01-05T13:04:39.653Z,5.00
2024-01-05T13:07:12.355Z,3.97
2024-01-05T13:09:45.160Z,2.42
2024-01-05T13:12:12.383Z,3.35
2024-01-05T13:14:42.661Z,5.13
2024-01-05T13:17:09.758Z,3.60
2024-01-05T13:19:38.235Z,1.73
2024-01-05T13:22:10.502Z,2.15
2024-01-05T13:24:37.718Z,3.20
2024-01-05T13:27:06.686Z,3.85
2024-01-05T13:29:33.837Z,3.72
2024-01-05T13:32:00.784Z,10.95
2024-01-05T13:34:30.869Z,3.03
2024-01-05T13:37:01.634Z,5.88
2024-01-05T13:39:28.691Z,5.77
2024-01-05T13:41:56.021Z,6.27
2024-01-05T13:44:25.253Z,4.57
2024-01-05T13:46:52.267Z,3.67
2024-01-05T13:49:24.803Z,5.47
2024-01-05T13:51:52.750Z,5.63
2024-01-05T13:54:23.164Z,4.80
2024-01-05T13:56:50.316Z,9.27
2024-01-05T13:59:17.227Z,6.80
2024-01-05T14:01:44.629Z,7.93
2024-01-05T14:04:12.729Z,8.87
2024-01-05T14:06:40.164Z,18.63
2024-01-05T14:09:07.241Z,29.17
2024-01-05T14:11:34.220Z,78.07
2024-01-05T14:14:01.321Z,45.40
2024-01-05T14:16:28.306Z,35.37
2024-01-05T14:18:55.765Z,34.93
2024-01-05T14:21:29.724Z,32.33
2024-01-05T14:23:57.642Z,32.90
2024-01-05T14:26:27.341Z,29.93
2024-01-05T14:28:56.437Z,35.03
2024-01-05T14:31:34.939Z,24.20
2024-01-05T14:34:04.830Z,16.90
2024-01-05T14:36:31.832Z,15.63
2024-01-05T14:38:59.990Z,19.07
2024-01-05T14:41:29.589Z,20.77
2024-01-05T14:43:57.454Z,33.97
2024-01-05T14:46:25.928Z,39.40
2024-01-05T14:48:54.491Z,37.60
2024-01-05T14:51:30.513Z,35.23
2024-01-05T14:54:01.111Z,43.93
2024-01-05T14:56:31.162Z,41.23
2024-01-05T14:59:02.844Z,33.73
2024-01-05T15:01:31.612Z,35.00
2024-01-05T15:03:59.258Z,39.37
2024-01-05T15:06:38.156Z,47.33
2024-01-05T15:09:08.983Z,36.17
2024-01-05T15:11:37.183Z,31.70
2024-01-05T15:14:11.948Z,37.70
2024-01-05T15:16:58.116Z,65.33
2024-01-05T15:19:29.973Z,76.47
2024-01-05T15:22:00.693Z,91.20
2024-01-05T15:24:31.877Z,51.43
2024-01-05T15:27:04.372Z,29.30
2024-01-05T15:29:42.399Z,24.43
2024-01-05T15:32:17.750Z,18.97
2024-01-05T15:34:45.208Z,20.57
2024-01-05T15:37:17.312Z,20.73
2024-01-05T15:39:44.950Z,20.10
2024-01-05T15:42:16.353Z,21.17
2024-01-05T15:44:45.931Z,19.70
2024-01-05T15:47:13.412Z,16.97
2024-01-05T15:49:42.170Z,15.23
2024-01-05T15:52:09.738Z,15.60
2024-01-05T15:54:37.008Z,14.63
2024-01-05T15:57:05.201Z,15.90
2024-01-05T15:59:36.488Z,18.60
2024-01-05T16:02:04.700Z,21.77
2024-01-05T16:04:33.801Z,24.13
2024-01-05T16:07:05.290Z,27.97
2024-01-05T16:09:32.483Z,37.43
2024-01-05T16:12:00.700Z,47.23
2024-01-05T16:14:34.994Z,53.40
2024-01-05T16:17:03.306Z,61.50
2024-01-05T16:19:31.593Z,66.00
2024-01-05T16:22:01.640Z,89.30
2024-01-05T16:24:29.094Z,86.63
2024-01-05T16:26:56.857Z,73.17
2024-01-05T16:29:25.228Z,69.03
2024-01-05T16:31:53.267Z,65.20
2024-01-05T16:34:21.714Z,63.97
2024-01-05T16:36:49.124Z,68.20
2024-01-05T16:39:18.811Z,149.13
2024-01-05T16:41:46.766Z,132.70
2024-01-05T16:44:13.731Z,114.20
2024-01-05T16:46:41.207Z,120.67
2024-01-05T16:49:09.147Z,106.27
2024-01-05T16:51:36.343Z,103.97
2024-01-05T16:54:04.553Z,101.60
2024-01-05T16:56:41.055Z,96.87
2024-01-05T16:59:12.364Z,94.93
2024-01-05T17:01:47.151Z,80.23
2024-01-05T17:04:14.455Z,105.60
2024-01-05T17:06:43.713Z,78.80
2024-01-05T17:09:10.944Z,74.53
2024-01-05T17:11:37.951Z,77.33
2024-01-05T17:14:04.997Z,90.70
2024-01-05T17:16:32.299Z,91.07
2024-01-05T17:19:00.736Z,92.67
2024-01-05T17:21:33.132Z,85.73
2024-01-05T17:24:01.440Z,79.50
2024-01-05T17:26:31.598Z,72.33
2024-01-05T17:29:05.234Z,70.37
2024-01-05T17:31:33.026Z,54.03
2024-01-05T17:34:00.483Z,45.90
2024-01-05T17:36:32.106Z,42.73
2024-01-05T17:38:59.426Z,37.30
2024-01-05T17:41:28.588Z,38.00
2024-01-05T17:43:55.602Z,38.07
2024-01-05T17:46:22.517Z,24.37
2024-01-05T17:48:50.025Z,21.27
2024-01-05T17:51:17.273Z,20.97
2024-01-05T17:53:49.488Z,23.87
2024-01-05T17:56:27.779Z,26.57
2024-01-05T17:58:57.463Z,26.90
2024-01-05T18:01:27.025Z,27.67
2024-01-05T18:03:56.459Z,30.40
2024-01-05T18:06:23.877Z,34.70
2024-01-05T18:08:53.127Z,49.20
2024-01-05T18:11:23.731Z,53.87
2024-01-05T18:13:52.347Z,46.63
2024-01-05T18:16:32.582Z,42.37
2024-01-05T18:18:59.755Z,45.57
2024-01-05T18:21:29.904Z,61.90
2024-01-05T18:24:18.988Z,86.90
2024-01-05T18:26:49.124Z,80.77
2024-01-05T18:29:24.452Z,102.97
2024-01-05T18:31:55.461Z,63.40
2024-01-05T18:34:24.222Z,50.90
2024-01-05T18:36:51.649Z,50.20
2024-01-05T18:39:19.095Z,51.17
2024-01-05T18:41:48.462Z,57.83
2024-01-05T18:44:19.692Z,51.37
2024-01-05T18:46:51.565Z,54.57
2024-01-05T18:49:20.298Z,43.67
2024-01-05T18:51:48.663Z,38.50
2024-01-05T18:54:20.979Z,38.20
2024-01-05T18:56:49.654Z,35.00
2024-01-05T18:59:19.229Z,36.17
2024-01-05T19:02:02.053Z,42.23
2024-01-05T19:04:31.933Z,38.97
2024-01-05T19:07:02.528Z,34.30
2024-01-05T19:09:30.107Z,33.03
2024-01-05T19:12:02.375Z,30.17
2024-01-05T19:14:30.137Z,32.80
2024-01-05T19:16:59.387Z,42.77
2024-01-05T19:19:34.415Z,36.00
2024-01-05T19:22:02.831Z,38.70
2024-01-05T19:24:33.459Z,39.23
2024-01-05T19:27:03.449Z,37.80
2024-01-05T19:29:33.600Z,37.73
2024-01-05T19:32:01.978Z,83.63
2024-01-05T19:34:31.102Z,219.73
2024-01-05T19:36:59.510Z,69.77
2024-01-05T19:39:34.846Z,39.17
2024-01-05T19:42:02.542Z,39.60
2024-01-05T19:44:30.099Z,38.73
2024-01-05T19:46:58.720Z,109.57
2024-01-05T19:49:31.700Z,101.07
2024-01-05T19:52:01.725Z,58.57
2024-01-05T19:54:34.581Z,53.50
2024-01-05T19:57:04.205Z,46.13
2024-01-05T19:59:33.678Z,41.03
2024-01-05T20:02:09.011Z,32.10
2024-01-05T20:04:40.274Z,27.53
2024-01-05T20:07:12.380Z,32.13
2024-01-05T20:09:47.104Z,38.70
2024-01-05T20:12:18.666Z,36.23
2024-01-05T20:14:49.315Z,35.27
2024-01-05T20:17:18.288Z,34.27
2024-01-05T20:19:47.266Z,34.83
2024-01-05T20:22:18.185Z,52.63
2024-01-05T20:24:49.650Z,45.03
2024-01-05T20:27:19.156Z,48.53
2024-01-05T20:29:49.486Z,44.47
2024-01-05T20:32:22.290Z,44.07
2024-01-05T20:35:02.088Z,43.33
2024-01-05T20:37:31.669Z,41.47
2024-01-05T20:40:00.014Z,41.27
2024-01-05T20:42:28.538Z,41.57
2024-01-05T20:45:01.734Z,41.10
2024-01-05T20:47:39.794Z,42.73
2024-01-05T20:50:19.643Z,42.53
2024-01-05T20:52:48.986Z,40.70
2024-01-05T20:55:16.377Z,42.50
2024-01-05T20:57:46.130Z,70.53
2024-01-05T21:00:33.304Z,99.50
2024-01-05T21:03:00.813Z,65.53
2024-01-05T21:05:27.844Z,63.57
2024-01-05T21:07:55.043Z,66.67
2024-01-05T21:10:23.457Z,58.33
2024-01-05T21:12:53.425Z,48.60
2024-01-05T21:15:20.466Z,47.40
2024-01-05T21:17:47.686Z,43.77
2024-01-05T21:20:15.537Z,28.70
2024-01-05T21:22:43.153Z,27.50
2024-01-05T21:25:13.924Z,27.27
2024-01-05T21:27:43.187Z,26.57
2024-01-05T21:30:10.875Z,22.67
2024-01-05T21:32:39.590Z,23.37
2024-01-05T21:35:07.331Z,23.50
2024-01-05T21:37:37.652Z,22.77
2024-01-05T21:40:07.229Z,22.07
2024-01-05T21:42:35.050Z,25.73
2024-01-05T21:45:02.988Z,35.50
2024-01-05T21:47:51.973Z,71.03
2024-01-05T21:50:19.942Z,55.17
2024-01-05T21:52:47.834Z,53.93
2024-01-05T21:55:17.579Z,49.33
2024-01-05T21:57:46.176Z,49.70
2024-01-05T22:00:14.177Z,45.03
2024-01-05T22:02:41.506Z,45.43
2024-01-05T22:05:08.983Z,54.77
2024-01-05T22:07:36.755Z,49.70
2024-01-05T22:10:05.608Z,50.70
2024-01-05T22:12:32.800Z,49.50
2024-01-05T22:15:00.034Z,43.97
2024-01-05T22:17:27.189Z,46.93
2024-01-05T22:19:55.209Z,44.40
2024-01-05T22:22:23.616Z,35.37
2024-01-05T22:24:50.880Z,32.30
2024-01-05T22:27:19.253Z,30.93
2024-01-05T22:29:46.911Z,26.47
2024-01-05T22:32:14.309Z,22.03
2024-01-05T22:34:44.162Z,22.03
2024-01-05T22:37:11.929Z,26.03
2024-01-05T22:39:39.355Z,13.37
2024-01-05T22:42:06.605Z,17.53
2024-01-05T22:44:34.511Z,16.27
2024-01-05T22:47:06.057Z,16.70
2024-01-05T22:49:33.626Z,15.00
2024-01-05T22:52:03.255Z,15.73
2024-01-05T22:54:31.205Z,12.30
2024-01-05T22:56:58.443Z,13.03
2024-01-05T22:59:25.524Z,10.63
2024-01-05T23:01:56.499Z,11.07
2024-01-05T23:04:25.666Z,10.90
2024-01-05T23:06:54.329Z,11.57
2024-01-05T23:09:21.856Z,10.90
2024-01-05T23:11:53.877Z,10.60
2024-01-05T23:14:21.786Z,11.17
2024-01-05T23:16:53.145Z,12.73
2024-01-05T23:19:21.385Z,15.23
2024-01-05T23:21:48.651Z,19.47
2024-01-05T23:24:16.116Z,18.70
2024-01-05T23:26:44.831Z,20.20
2024-01-05T23:29:12.400Z,22.10
2024-01-05T23:31:43.305Z,20.70
2024-01-05T23:34:16.356Z,16.70
2024-01-05T23:36:47.374Z,13.23
2024-01-05T23:39:15.074Z,12.87
2024-01-05T23:41:42.664Z,9.17
2024-01-05T23:44:10.160Z,8.17
2024-01-05T23:46:37.392Z,8.57
2024-01-05T23:49:04.590Z,9.60
2024-01-05T23:51:32.431Z,9.10
2024-01-05T23:53:59.699Z,8.87
2024-01-05T23:56:26.948Z,8.63
2024-01-05T23:58:54.872Z,13.97
